createdAt,value
2024-01-14T00:00:45.354Z,101740.38
2024-01-14T00:03:12.042Z,101729.63
2024-01-14T00:05:38.557Z,101733.22
2024-01-14T00:08:05.226Z,101734.03
2024-01-14T00:10:31.661Z,101721.75
2024-01-14T00:12:58.092Z,101721.75
2024-01-14T00:15:24.648Z,101722.56
2024-01-14T00:17:51.253Z,101711.09
2024-01-14T00:20:17.947Z,101705.53
2024-01-14T00:22:44.424Z,101712.25
2024-01-14T00:25:12.936Z,101716.66
2024-01-14T00:27:39.651Z,101715.84
2024-01-14T00:30:07.542Z,101715.03
2024-01-14T00:32:34.122Z,101710.66
2024-01-14T00:35:00.740Z,101720.53
2024-01-14T00:37:27.262Z,101713.34
2024-01-14T00:39:53.706Z,101716.13
2024-01-14T00:42:20.188Z,101706.66
2024-01-14T00:44:47.209Z,101693.19
2024-01-14T00:47:13.736Z,101675.75
2024-01-14T00:49:40.194Z,101681.69
2024-01-14T00:52:06.753Z,101686.03
2024-01-14T00:54:33.514Z,101683.28
2024-01-14T00:56:59.957Z,101678.09
2024-01-14T00:59:26.355Z,101669.78
2024-01-14T01:01:53.098Z,101664.22
2024-01-14T01:04:19.702Z,101665.03
2024-01-14T01:06:46.211Z,101655.91
2024-01-14T01:09:12.815Z,101657.03
2024-01-14T01:11:39.321Z,101654.66
2024-01-14T01:14:05.754Z,101653.06
2024-01-14T01:16:32.267Z,101652.97
2024-01-14T01:18:58.822Z,101653.78
2024-01-14T01:21:25.505Z,101653.34
2024-01-14T01:23:52.054Z,101655.69
2024-01-14T01:26:18.556Z,101659.28
2024-01-14T01:28:45.140Z,101658.47
2024-01-14T01:31:11.791Z,101651.31
2024-01-14T01:33:38.562Z,101645.84
2024-01-14T01:36:05.493Z,101640.28
2024-01-14T01:38:32.049Z,101643.47
2024-01-14T01:40:58.472Z,101634.00
2024-01-14T01:43:25.051Z,101631.59
2024-01-14T01:45:53.537Z,101631.16
2024-01-14T01:48:22.765Z,101622.03
2024-01-14T01:50:52.557Z,101629.13
2024-01-14T01:53:19.369Z,101621.16
2024-01-14T01:55:46.272Z,101618.81
2024-01-14T01:58:12.723Z,101618.41
2024-01-14T02:00:40.277Z,101614.75
2024-01-14T02:03:07.075Z,101621.03
2024-01-14T02:05:37.883Z,101621.78
2024-01-14T02:08:04.971Z,101618.94
2024-01-14T02:10:31.393Z,101618.50
2024-01-14T02:12:58.141Z,101612.88
2024-01-14T02:15:24.619Z,101608.50
2024-01-14T02:17:51.405Z,101608.06
2024-01-14T02:20:18.478Z,101592.94
2024-01-14T02:22:46.114Z,101597.28
2024-01-14T02:25:13.468Z,101597.72
2024-01-14T02:27:40.208Z,101593.31
2024-01-14T02:30:10.600Z,101587.34
2024-01-14T02:32:38.851Z,101587.34
2024-01-14T02:35:06.862Z,101587.34
2024-01-14T02:37:34.458Z,101598.44
2024-01-14T02:40:00.911Z,101591.34
2024-01-14T02:42:27.602Z,101591.72
2024-01-14T02:44:54.272Z,101591.28
2024-01-14T02:47:20.738Z,101597.28
2024-01-14T02:49:47.819Z,101585.75
2024-01-14T02:52:14.344Z,101569.09
2024-01-14T02:54:40.835Z,101569.53
2024-01-14T02:57:07.417Z,101572.31
2024-01-14T02:59:34.123Z,101569.53
2024-01-14T03:02:00.594Z,101562.00
2024-01-14T03:04:27.280Z,101564.00
2024-01-14T03:06:53.823Z,101563.56
2024-01-14T03:09:20.395Z,101562.75
2024-01-14T03:11:46.873Z,101558.81
2024-01-14T03:14:13.304Z,101554.00
2024-01-14T03:16:39.739Z,101535.31
2024-01-14T03:19:06.324Z,101549.19
2024-01-14T03:21:33.399Z,101534.94
2024-01-14T03:24:00.001Z,101540.13
2024-01-14T03:26:26.615Z,101534.94
2024-01-14T03:28:53.081Z,101538.91
2024-01-14T03:31:19.507Z,101526.19
2024-01-14T03:33:46.223Z,101531.72
2024-01-14T03:36:14.803Z,101519.50
2024-01-14T03:38:42.185Z,101522.19
2024-01-14T03:41:08.896Z,101525.34
2024-01-14T03:43:35.522Z,101524.91
2024-01-14T03:46:01.998Z,101523.72
2024-01-14T03:48:28.691Z,101526.09
2024-01-14T03:50:55.185Z,101528.03
2024-01-14T03:53:21.608Z,101519.28
2024-01-14T03:55:48.688Z,101518.13
2024-01-14T03:58:15.902Z,101512.94
2024-01-14T04:00:42.643Z,101506.16
2024-01-14T04:03:09.311Z,101509.31
2024-01-14T04:05:35.771Z,101499.81
2024-01-14T04:08:02.294Z,101503.78
2024-01-14T04:10:28.717Z,101498.22
2024-01-14T04:12:55.139Z,101498.22
2024-01-14T04:15:23.476Z,101485.94
2024-01-14T04:17:50.028Z,101492.69
2024-01-14T04:20:16.681Z,101483.94
2024-01-14T04:22:43.177Z,101478.38
2024-01-14T04:25:09.670Z,101478.00
2024-01-14T04:27:38.372Z,101478.38
2024-01-14T04:30:06.324Z,101473.56
2024-01-14T04:32:32.903Z,101480.72
2024-01-14T04:34:59.701Z,101477.50
2024-01-14T04:37:26.220Z,101492.09
2024-01-14T04:39:53.307Z,101479.44
2024-01-14T04:42:19.741Z,101475.91
2024-01-14T04:44:46.168Z,101467.53
2024-01-14T04:47:12.618Z,101458.41
2024-01-14T04:49:39.717Z,101463.09
2024-01-14T04:52:06.369Z,101465.88
2024-01-14T04:54:32.865Z,101460.31
2024-01-14T04:56:59.466Z,101463.09
2024-01-14T04:59:26.008Z,101464.69
2024-01-14T05:01:52.437Z,101460.78
2024-01-14T05:04:18.969Z,101449.69
2024-01-14T05:06:45.492Z,101450.47
2024-01-14T05:09:11.989Z,101449.69
2024-01-14T05:11:38.486Z,101447.25
2024-01-14T05:14:04.887Z,101452.00
2024-01-14T05:16:31.296Z,101441.69
2024-01-14T05:18:58.252Z,101432.91
2024-01-14T05:21:24.834Z,101427.31
2024-01-14T05:23:51.516Z,101433.66
2024-01-14T05:26:18.650Z,101430.91
2024-01-14T05:28:45.076Z,101423.28
2024-01-14T05:31:11.648Z,101426.88
2024-01-14T05:33:38.367Z,101419.38
2024-01-14T05:36:05.260Z,101423.72
2024-01-14T05:38:31.758Z,101419.81
2024-01-14T05:40:58.210Z,101428.06
2024-01-14T05:43:24.660Z,101423.28
2024-01-14T05:45:51.249Z,101418.94
2024-01-14T05:48:23.443Z,101416.09
2024-01-14T05:50:50.722Z,101412.94
2024-01-14T05:53:17.212Z,101409.00
2024-01-14T05:55:43.679Z,101414.13
2024-01-14T05:58:10.173Z,101409.31
2024-01-14T06:00:36.734Z,101408.97
2024-01-14T06:03:03.450Z,101397.88
2024-01-14T06:05:30.002Z,101394.66
2024-01-14T06:07:56.571Z,101404.94
2024-01-14T06:10:23.060Z,101405.69
2024-01-14T06:12:49.502Z,101394.16
2024-01-14T06:15:16.037Z,101397.00
2024-01-14T06:17:42.457Z,101393.84
2024-01-14T06:20:10.659Z,101381.91
2024-01-14T06:22:37.221Z,101384.25
2024-01-14T06:25:04.848Z,101382.72
2024-01-14T06:27:31.288Z,101361.34
2024-01-14T06:29:57.739Z,101364.88
2024-01-14T06:32:24.209Z,101362.88
2024-01-14T06:34:50.744Z,101359.75
2024-01-14T06:37:17.341Z,101352.59
2024-01-14T06:39:43.776Z,101356.94
2024-01-14T06:42:10.235Z,101353.34
2024-01-14T06:44:39.656Z,101353.28
2024-01-14T06:47:06.255Z,101355.25
2024-01-14T06:49:33.065Z,101353.66
2024-01-14T06:51:59.659Z,101357.25
2024-01-14T06:54:26.090Z,101352.41
2024-01-14T06:56:52.482Z,101341.78
2024-01-14T06:59:19.363Z,101346.88
2024-01-14T07:01:47.105Z,101348.88
2024-01-14T07:04:14.074Z,101346.09
2024-01-14T07:06:41.001Z,101343.31
2024-01-14T07:09:09.858Z,101340.50
2024-01-14T07:11:36.612Z,101340.88
2024-01-14T07:14:03.128Z,101331.75
2024-01-14T07:16:30.624Z,101334.44
2024-01-14T07:18:57.325Z,101340.41
2024-01-14T07:21:24.628Z,101340.41
2024-01-14T07:23:51.436Z,101341.56
2024-01-14T07:26:22.661Z,101339.25
2024-01-14T07:28:52.624Z,101340.88
2024-01-14T07:31:22.971Z,101343.19
2024-01-14T07:33:51.724Z,101341.19
2024-01-14T07:36:18.683Z,101347.56
2024-01-14T07:38:46.278Z,101343.97
2024-01-14T07:41:16.799Z,101344.78
2024-01-14T07:43:44.470Z,101338.09
2024-01-14T07:46:11.276Z,101355.06
2024-01-14T07:48:38.633Z,101348.28
2024-01-14T07:51:05.685Z,101338.03
2024-01-14T07:53:32.215Z,101338.81
2024-01-14T07:55:58.850Z,101336.41
2024-01-14T07:58:25.984Z,101338.41
2024-01-14T08:01:00.721Z,101341.94
2024-01-14T08:03:30.172Z,101347.13
2024-01-14T08:05:56.903Z,101343.94
2024-01-14T08:08:24.684Z,101343.63
2024-01-14T08:10:51.235Z,101335.31
2024-01-14T08:13:17.712Z,101336.47
2024-01-14T08:15:53.748Z,101333.69
2024-01-14T08:18:27.580Z,101340.50
2024-01-14T08:20:54.296Z,101333.41
2024-01-14T08:23:21.043Z,101325.47
2024-01-14T08:25:47.710Z,101327.47
2024-01-14T08:28:14.707Z,101323.19
2024-01-14T08:30:41.395Z,101314.88
2024-01-14T08:33:08.222Z,101314.44
2024-01-14T08:35:34.923Z,101311.69
2024-01-14T08:38:01.576Z,101314.44
2024-01-14T08:40:28.058Z,101310.88
2024-01-14T08:42:54.668Z,101311.75
2024-01-14T08:45:21.208Z,101315.25
2024-01-14T08:47:47.747Z,101308.91
2024-01-14T08:50:14.615Z,101303.38
2024-01-14T08:52:41.280Z,101303.38
2024-01-14T08:55:09.717Z,101295.50
2024-01-14T08:57:36.465Z,101296.31
2024-01-14T09:00:03.379Z,101304.63
2024-01-14T09:02:30.258Z,101305.75
2024-01-14T09:04:56.765Z,101287.19
2024-01-14T09:07:23.263Z,101291.16
2024-01-14T09:09:50.272Z,101296.34
2024-01-14T09:12:17.010Z,101291.59
2024-01-14T09:14:43.758Z,101286.06
2024-01-14T09:17:11.604Z,101281.41
2024-01-14T09:19:38.121Z,101277.44
2024-01-14T09:22:04.548Z,101280.59
2024-01-14T09:24:31.026Z,101282.22
2024-01-14T09:26:57.617Z,101271.53
2024-01-14T09:29:24.160Z,101276.69
2024-01-14T09:31:50.656Z,101275.16
2024-01-14T09:34:17.394Z,101282.34
2024-01-14T09:36:44.767Z,101269.00
2024-01-14T09:39:11.935Z,101268.66
2024-01-14T09:42:03.897Z,101267.91
2024-01-14T09:44:30.573Z,101269.53
2024-01-14T09:46:57.687Z,101272.31
2024-01-14T09:49:24.421Z,101282.22
2024-01-14T09:51:51.391Z,101283.41
2024-01-14T09:54:18.061Z,101288.56
2024-01-14T09:56:45.882Z,101288.56
2024-01-14T09:59:15.300Z,101284.59
2024-01-14T10:01:41.769Z,101291.72
2024-01-14T10:04:09.767Z,101288.13
2024-01-14T10:06:37.115Z,101292.06
2024-01-14T10:09:04.162Z,101291.66
2024-01-14T10:11:30.675Z,101284.13
2024-01-14T10:13:57.216Z,101288.50
2024-01-14T10:16:50.649Z,101281.72
2024-01-14T10:19:10.714Z,101274.59
2024-01-14T10:21:38.700Z,101260.72
2024-01-14T10:24:06.057Z,101259.94
2024-01-14T10:26:32.643Z,101250.47
2024-01-14T10:29:06.197Z,101244.16
2024-01-14T10:31:33.120Z,101244.59
2024-01-14T10:34:01.950Z,101221.63
2024-01-14T10:36:29.874Z,101227.97
2024-01-14T10:39:03.724Z,101217.66
2024-01-14T10:41:31.011Z,101226.03
2024-01-14T10:43:58.494Z,101221.34
2024-01-14T10:46:25.768Z,101208.31
2024-01-14T10:49:02.440Z,101212.31
2024-01-14T10:51:32.554Z,101204.44
2024-01-14T10:54:06.285Z,101207.63
2024-01-14T10:56:37.916Z,101201.28
2024-01-14T10:59:07.440Z,101197.69
2024-01-14T11:01:36.969Z,101188.59
2024-01-14T11:04:05.498Z,101185.03
2024-01-14T11:06:34.985Z,101181.88
2024-01-14T11:09:01.463Z,101175.97
2024-01-14T11:11:37.077Z,101173.63
2024-01-14T11:14:14.245Z,101172.03
2024-01-14T11:16:52.997Z,101171.28
2024-01-14T11:19:30.221Z,101159.84
2024-01-14T11:22:21.045Z,101155.84
2024-01-14T11:24:55.320Z,101152.69
2024-01-14T11:27:25.297Z,101129.31
2024-01-14T11:29:52.299Z,101126.09
2024-01-14T11:32:22.240Z,101130.06
2024-01-14T11:34:50.241Z,101124.16
2024-01-14T11:37:43.455Z,101116.25
2024-01-14T11:40:31.682Z,101119.47
2024-01-14T11:43:09.557Z,101109.56
2024-01-14T11:45:37.491Z,101117.06
2024-01-14T11:48:06.091Z,101112.31
2024-01-14T11:50:34.296Z,101110.72
2024-01-14T11:53:01.903Z,101100.81
2024-01-14T11:55:33.364Z,101105.13
2024-01-14T12:00:49.056Z,101088.91
2024-01-14T12:03:17.432Z,101084.63
2024-01-14T12:05:45.618Z,101077.88
2024-01-14T12:08:14.038Z,101067.97
2024-01-14T12:10:40.935Z,101064.38
2024-01-14T12:13:08.949Z,101056.44
2024-01-14T12:15:38.292Z,101056.88
2024-01-14T12:18:07.203Z,101054.13
2024-01-14T12:20:34.581Z,101034.31
2024-01-14T12:23:03.944Z,101035.50
2024-01-14T12:25:32.341Z,101026.84
2024-01-14T12:27:59.560Z,101021.72
2024-01-14T12:30:32.173Z,101012.63
2024-01-14T12:33:04.185Z,101018.16
2024-01-14T12:35:38.438Z,101014.66
2024-01-14T12:38:08.193Z,100999.59
2024-01-14T12:40:35.474Z,100998.78
2024-01-14T12:43:01.975Z,100992.88
2024-01-14T12:45:28.514Z,100992.13
2024-01-14T12:47:58.472Z,100986.97
2024-01-14T12:50:27.287Z,100984.22
2024-01-14T12:53:02.077Z,100979.09
2024-01-14T12:55:30.760Z,100969.19
2024-01-14T12:57:59.274Z,100977.91
2024-01-14T13:00:26.212Z,100969.50
2024-01-14T13:02:53.445Z,100973.44
2024-01-14T13:05:20.478Z,100968.28
2024-01-14T13:07:47.047Z,100962.75
2024-01-14T13:10:13.662Z,100960.78
2024-01-14T13:12:40.895Z,100954.00
2024-01-14T13:15:07.893Z,100950.88
2024-01-14T13:17:35.135Z,100950.44
2024-01-14T13:20:02.377Z,100938.97
2024-01-14T13:22:28.934Z,100938.56
2024-01-14T13:24:55.586Z,100931.81
2024-01-14T13:27:22.144Z,100932.97
2024-01-14T13:29:48.670Z,100924.66
2024-01-14T13:32:17.462Z,100923.06
2024-01-14T13:34:44.061Z,100921.09
2024-01-14T13:37:11.064Z,100921.09
2024-01-14T13:39:39.956Z,100908.78
2024-01-14T13:42:06.982Z,100913.56
2024-01-14T13:44:33.607Z,100906.81
2024-01-14T13:47:00.095Z,100898.91
2024-01-14T13:49:26.723Z,100899.22
2024-01-14T13:51:54.556Z,100895.25
2024-01-14T13:54:21.055Z,100884.97
2024-01-14T13:56:49.768Z,100885.34
2024-01-14T13:59:16.211Z,100887.34
2024-01-14T14:01:43.036Z,100877.03
2024-01-14T14:04:10.400Z,100874.28
2024-01-14T14:06:39.042Z,100873.53
2024-01-14T14:09:08.481Z,100871.56
2024-01-14T14:11:35.724Z,100860.06
2024-01-14T14:14:02.306Z,100856.09
2024-01-14T14:16:39.028Z,100853.72
2024-01-14T14:19:08.892Z,100849.75
2024-01-14T14:21:49.862Z,100852.13
2024-01-14T14:24:21.773Z,100851.34
2024-01-14T14:26:48.513Z,100853.69
2024-01-14T14:29:14.992Z,100850.13
2024-01-14T14:31:48.533Z,100841.00
2024-01-14T14:34:19.440Z,100836.66
2024-01-14T14:36:46.988Z,100836.25
2024-01-14T14:39:13.661Z,100829.91
2024-01-14T14:41:40.607Z,100829.13
2024-01-14T14:44:08.901Z,100826.34
2024-01-14T14:46:35.833Z,100830.28
2024-01-14T14:49:02.681Z,100830.69
2024-01-14T14:51:37.288Z,100828.69
2024-01-14T14:54:06.796Z,100829.88
2024-01-14T14:56:33.670Z,100821.97
2024-01-14T14:59:00.237Z,100819.53
2024-01-14T15:01:36.394Z,100827.47
2024-01-14T15:04:08.692Z,100827.84
2024-01-14T15:06:35.368Z,100825.09
2024-01-14T15:09:01.949Z,100814.00
2024-01-14T15:11:31.541Z,100822.69
2024-01-14T15:14:01.704Z,100827.47
2024-01-14T15:16:28.210Z,100820.72
2024-01-14T15:18:54.743Z,100823.06
2024-01-14T15:21:22.045Z,100819.91
2024-01-14T15:23:49.084Z,100829.41
2024-01-14T15:26:15.500Z,100825.84
2024-01-14T15:28:42.234Z,100828.97
2024-01-14T15:31:10.018Z,100832.50
2024-01-14T15:33:37.572Z,100831.69
2024-01-14T15:36:04.871Z,100828.88
2024-01-14T15:38:33.111Z,100825.28
2024-01-14T15:41:06.040Z,100816.56
2024-01-14T15:43:35.244Z,100809.88
2024-01-14T15:46:02.030Z,100802.72
2024-01-14T15:48:29.899Z,100801.13
2024-01-14T15:51:03.007Z,100799.53
2024-01-14T15:53:31.601Z,100788.84
2024-01-14T15:55:58.163Z,100783.69
2024-01-14T15:58:24.944Z,100780.53
2024-01-14T16:01:03.153Z,100779.34
2024-01-14T16:03:36.294Z,100777.34
2024-01-14T16:06:03.197Z,100767.88
2024-01-14T16:08:30.119Z,100751.25
2024-01-14T16:11:04.618Z,100754.81
2024-01-14T16:13:34.044Z,100752.38
2024-01-14T16:16:01.135Z,100751.97
2024-01-14T16:18:27.718Z,100748.00
2024-01-14T16:21:02.767Z,100743.66
2024-01-14T16:23:33.237Z,100744.81
2024-01-14T16:25:59.995Z,100736.09
2024-01-14T16:28:27.436Z,100741.28
2024-01-14T16:31:04.397Z,100740.47
2024-01-14T16:33:37.082Z,100732.97
2024-01-14T16:36:04.017Z,100728.22
2024-01-14T16:38:30.559Z,100731.78
2024-01-14T16:41:03.442Z,100725.03
2024-01-14T16:43:32.280Z,100725.78
2024-01-14T16:45:58.804Z,100718.72
2024-01-14T16:48:25.411Z,100718.69
2024-01-14T16:51:02.423Z,100723.41
2024-01-14T16:53:35.264Z,100727.78
2024-01-14T16:56:02.762Z,100732.94
2024-01-14T16:58:29.256Z,100724.22
2024-01-14T17:01:07.962Z,100723.03
2024-01-14T17:03:42.236Z,100722.25
2024-01-14T17:06:12.687Z,100702.06
2024-01-14T17:08:41.639Z,100709.94
2024-01-14T17:11:09.981Z,100715.09
2024-01-14T17:13:36.455Z,100704.44
2024-01-14T17:16:09.153Z,100713.94
2024-01-14T17:18:38.475Z,100706.78
2024-01-14T17:21:05.284Z,100706.81
2024-01-14T17:23:31.876Z,100712.78
2024-01-14T17:26:07.406Z,100708.81
2024-01-14T17:28:38.369Z,100710.00
2024-01-14T17:31:04.947Z,100696.53
2024-01-14T17:33:32.333Z,100695.34
2024-01-14T17:36:04.995Z,100684.66
2024-01-14T17:38:33.705Z,100684.66
2024-01-14T17:41:00.750Z,100677.16
2024-01-14T17:43:29.247Z,100680.31
2024-01-14T17:46:03.749Z,100676.31
2024-01-14T17:48:35.481Z,100663.25
2024-01-14T17:51:03.664Z,100671.16
2024-01-14T17:53:30.885Z,100667.56
2024-01-14T17:55:57.504Z,100661.66
2024-01-14T17:58:23.998Z,100668.34
2024-01-14T18:00:51.020Z,100664.81
2024-01-14T18:03:19.286Z,100664.81
2024-01-14T18:05:46.713Z,100658.09
2024-01-14T18:08:13.883Z,100652.19
2024-01-14T18:10:41.768Z,100650.97
2024-01-14T18:13:12.983Z,100649.78
2024-01-14T18:15:42.415Z,100645.84
2024-01-14T18:18:09.476Z,100639.53
2024-01-14T18:20:36.270Z,100647.44
2024-01-14T18:23:12.197Z,100649.81
2024-01-14T18:25:41.174Z,100655.75
2024-01-14T18:28:07.823Z,100643.06
2024-01-14T18:30:35.401Z,100644.25
2024-01-14T18:33:09.929Z,100641.91
2024-01-14T18:35:39.959Z,100633.97
2024-01-14T18:38:07.536Z,100632.41
2024-01-14T18:40:34.352Z,100627.69
2024-01-14T18:43:01.138Z,100631.63
2024-01-14T18:45:30.111Z,100627.69
2024-01-14T18:47:58.278Z,100621.34
2024-01-14T18:50:24.790Z,100611.47
2024-01-14T18:52:51.328Z,100613.84
2024-01-14T18:55:18.235Z,100618.97
2024-01-14T18:57:44.665Z,100618.97
2024-01-14T19:00:13.671Z,100617.78
2024-01-14T19:02:40.865Z,100625.28
2024-01-14T19:05:07.910Z,100616.97
2024-01-14T19:07:34.460Z,100611.44
2024-01-14T19:10:01.228Z,100611.03
2024-01-14T19:12:27.885Z,100611.78
2024-01-14T19:14:54.302Z,100618.06
2024-01-14T19:17:21.940Z,100618.06
2024-01-14T19:19:49.469Z,100617.28
2024-01-14T19:22:16.011Z,100613.75
2024-01-14T19:24:43.818Z,100609.41
2024-01-14T19:27:10.975Z,100603.06
2024-01-14T19:29:37.630Z,100605.44
2024-01-14T19:32:04.414Z,100600.69
2024-01-14T19:34:31.224Z,100610.16
2024-01-14T19:36:58.208Z,100593.50
2024-01-14T19:39:26.921Z,100604.19
2024-01-14T19:41:55.280Z,100597.44
2024-01-14T19:44:22.648Z,100595.88
2024-01-14T19:46:50.135Z,100594.25
2024-01-14T19:49:16.863Z,100601.78
2024-01-14T19:51:44.145Z,100593.06
2024-01-14T19:54:11.263Z,100591.06
2024-01-14T19:56:44.358Z,100584.69
2024-01-14T19:59:11.734Z,100589.44
2024-01-14T20:01:38.977Z,100587.47
2024-01-14T20:04:06.398Z,100576.78
2024-01-14T20:06:33.027Z,100573.22
2024-01-14T20:09:02.111Z,100578.31
2024-01-14T20:11:28.711Z,100569.25
2024-01-14T20:13:57.552Z,100565.69
2024-01-14T20:16:24.941Z,100560.53
2024-01-14T20:18:51.757Z,100566.47
2024-01-14T20:21:18.455Z,100559.31
2024-01-14T20:23:46.424Z,100553.78
2024-01-14T20:26:13.370Z,100551.81
2024-01-14T20:28:40.081Z,100543.50
2024-01-14T20:31:06.688Z,100545.91
2024-01-14T20:33:33.249Z,100564.50
2024-01-14T20:36:02.704Z,100561.75
2024-01-14T20:38:29.950Z,100562.53
2024-01-14T20:40:56.501Z,100561.38
2024-01-14T20:43:22.935Z,100566.09
2024-01-14T20:45:49.442Z,100560.97
2024-01-14T20:50:42.336Z,100564.13
2024-01-14T20:53:11.075Z,100562.56
2024-01-14T20:55:38.045Z,100559.38
2024-01-14T20:58:04.958Z,100562.16
2024-01-14T21:00:31.679Z,100561.03
2024-01-14T21:02:58.479Z,100558.25
2024-01-14T21:05:25.929Z,100557.06
2024-01-14T21:07:52.560Z,100560.25
2024-01-14T21:10:19.644Z,100558.66
2024-01-14T21:12:46.304Z,100541.28
2024-01-14T21:15:14.581Z,100544.03
2024-01-14T21:17:41.637Z,100534.16
2024-01-14T21:20:09.515Z,100544.44
2024-01-14T21:22:36.739Z,100542.47
2024-01-14T21:25:04.457Z,100548.81
2024-01-14T21:27:31.232Z,100549.56
2024-01-14T21:29:57.790Z,100538.88
2024-01-14T21:32:24.342Z,100545.22
2024-01-14T21:34:51.078Z,100541.28
2024-01-14T21:37:18.599Z,100535.31
2024-01-14T21:39:45.037Z,100541.25
2024-01-14T21:42:11.531Z,100538.88
2024-01-14T21:44:38.041Z,100538.88
2024-01-14T21:47:04.727Z,100533.69
2024-01-14T21:49:31.313Z,100532.09
2024-01-14T21:51:57.887Z,100541.59
2024-01-14T21:54:30.107Z,100537.22
2024-01-14T21:56:57.370Z,100543.53
2024-01-14T21:59:23.815Z,100543.53
2024-01-14T22:01:50.402Z,100538.41
2024-01-14T22:04:16.998Z,100540.38
2024-01-14T22:06:43.554Z,100538.81
2024-01-14T22:09:10.924Z,100535.66
2024-01-14T22:11:37.617Z,100538.41
2024-01-14T22:14:04.244Z,100546.72
2024-01-14T22:16:31.393Z,100541.19
2024-01-14T22:18:58.005Z,100537.22
2024-01-14T22:21:41.460Z,100542.38
2024-01-14T22:24:08.284Z,100542.38
2024-01-14T22:26:36.662Z,100529.34
2024-01-14T22:29:03.188Z,100539.59
2024-01-14T22:31:29.969Z,100521.00
2024-01-14T22:33:57.085Z,100530.13
2024-01-14T22:36:23.733Z,100526.94
2024-01-14T22:38:50.980Z,100519.81
2024-01-14T22:41:17.696Z,100528.91
2024-01-14T22:43:44.208Z,100523.75
2024-01-14T22:46:11.991Z,100527.31
2024-01-14T22:48:38.577Z,100534.81
2024-01-14T22:51:05.433Z,100531.25
2024-01-14T22:53:31.890Z,100540.31
2024-01-14T22:55:59.132Z,100534.00
2024-01-14T22:58:25.670Z,100537.16
2024-01-14T23:00:52.788Z,100533.56
2024-01-14T23:03:19.599Z,100531.19
2024-01-14T23:05:46.095Z,100535.09
2024-01-14T23:08:12.575Z,100533.53
2024-01-14T23:10:39.064Z,100524.78
2024-01-14T23:13:05.480Z,100518.47
2024-01-14T23:15:31.988Z,100521.59
2024-01-14T23:17:58.597Z,100520.41
2024-01-14T23:20:25.140Z,100520.41
2024-01-14T23:22:51.643Z,100523.53
2024-01-14T23:25:18.439Z,100517.16
2024-01-14T23:27:46.332Z,100516.34
2024-01-14T23:30:13.660Z,100513.59
2024-01-14T23:32:41.322Z,100517.16
2024-01-14T23:35:08.612Z,100511.59
2024-01-14T23:37:35.313Z,100517.88
2024-01-14T23:40:02.285Z,100513.94
2024-01-14T23:42:28.920Z,100514.38
2024-01-14T23:44:55.410Z,100513.19
2024-01-14T23:47:21.989Z,100506.88
2024-01-14T23:49:48.654Z,100512.38
2024-01-14T23:52:15.340Z,100509.22
2024-01-14T23:54:41.929Z,100505.25
2024-01-14T23:57:08.555Z,100498.91
2024-01-14T23:59:34.994Z,100493.34
